createdAt,value
2023-06-04T00:01:03.473Z,0.73
2023-06-04T00:03:31.309Z,1.10
2023-06-04T00:05:59.261Z,1.20
2023-06-04T00:08:26.864Z,1.35
2023-06-04T00:10:54.515Z,1.00
2023-06-04T00:13:24.106Z,1.15
2023-06-04T00:15:53.229Z,1.35
2023-06-04T00:18:21.037Z,1.02
2023-06-04T00:20:51.148Z,1.42
2023-06-04T00:23:18.984Z,1.38
2023-06-04T00:25:46.661Z,1.55
2023-06-04T00:28:14.415Z,0.90
2023-06-04T00:30:42.033Z,1.25
2023-06-04T00:33:11.119Z,1.50
2023-06-04T00:35:38.876Z,1.30
2023-06-04T00:38:06.694Z,0.90
2023-06-04T00:40:34.349Z,1.20
2023-06-04T00:43:01.977Z,1.10
2023-06-04T00:45:32.246Z,1.30
2023-06-04T00:48:00.214Z,1.40
2023-06-04T00:50:29.326Z,1.15
2023-06-04T00:52:58.683Z,1.40
2023-06-04T00:55:26.325Z,1.15
2023-06-04T00:57:53.945Z,1.30
2023-06-04T01:00:22.229Z,1.10
2023-06-04T01:02:52.258Z,1.75
2023-06-04T01:05:22.400Z,1.17
2023-06-04T01:07:52.341Z,1.77
2023-06-04T01:10:20.020Z,1.92
2023-06-04T01:12:47.979Z,1.67
2023-06-04T01:15:15.657Z,1.63
2023-06-04T01:17:43.932Z,1.60
2023-06-04T01:20:38.645Z,2.20
2023-06-04T01:23:30.077Z,1.83
2023-06-04T01:25:58.662Z,1.70
2023-06-04T01:28:27.936Z,1.80
2023-06-04T01:30:57.690Z,1.45
2023-06-04T01:33:25.837Z,1.73
2023-06-04T01:35:53.589Z,2.17
2023-06-04T01:38:22.642Z,1.50
2023-06-04T01:40:51.821Z,1.80
2023-06-04T01:43:19.583Z,1.63
2023-06-04T01:45:47.707Z,1.60
2023-06-04T01:48:16.486Z,2.30
2023-06-04T01:50:44.136Z,1.90
2023-06-04T01:53:11.765Z,2.10
2023-06-04T01:55:41.022Z,1.92
2023-06-04T01:58:10.318Z,1.63
2023-06-04T02:00:37.969Z,1.88
2023-06-04T02:03:05.753Z,1.52
2023-06-04T02:05:33.449Z,1.83
2023-06-04T02:08:02.987Z,1.52
2023-06-04T02:10:30.840Z,1.80
2023-06-04T02:13:00.471Z,2.17
2023-06-04T02:15:28.798Z,2.13
2023-06-04T02:17:59.429Z,1.88
2023-06-04T02:20:27.220Z,1.98
2023-06-04T02:22:55.805Z,2.00
2023-06-04T02:25:24.008Z,2.13
2023-06-04T02:27:52.252Z,1.98
2023-06-04T02:30:21.449Z,2.25
2023-06-04T02:32:52.844Z,1.95
2023-06-04T02:35:22.150Z,2.17
2023-06-04T02:37:50.037Z,2.33
2023-06-04T02:40:17.690Z,2.10
2023-06-04T02:42:45.309Z,2.40
2023-06-04T02:45:13.051Z,1.80
2023-06-04T02:47:42.111Z,2.33
2023-06-04T02:50:10.331Z,1.77
2023-06-04T02:52:38.920Z,1.67
2023-06-04T02:55:07.992Z,2.22
2023-06-04T02:57:36.096Z,1.85
2023-06-04T03:00:18.142Z,1.65
2023-06-04T03:02:47.663Z,2.33
2023-06-04T03:05:27.925Z,2.30
2023-06-04T03:07:58.550Z,1.98
2023-06-04T03:10:26.390Z,2.63
2023-06-04T03:12:54.052Z,2.13
2023-06-04T03:15:21.750Z,2.28
2023-06-04T03:17:52.640Z,1.90
2023-06-04T03:22:48.326Z,2.30
2023-06-04T03:25:16.042Z,2.17
2023-06-04T03:27:43.669Z,1.85
2023-06-04T03:30:12.025Z,1.67
2023-06-04T03:32:39.709Z,1.80
2023-06-04T03:35:09.672Z,1.90
2023-06-04T03:37:37.330Z,2.28
2023-06-04T03:40:07.447Z,2.33
2023-06-04T03:42:35.207Z,2.15
2023-06-04T03:45:02.875Z,2.53
2023-06-04T03:47:30.912Z,1.88
2023-06-04T03:49:58.554Z,1.60
2023-06-04T03:52:28.055Z,1.88
2023-06-04T03:54:56.069Z,2.00
2023-06-04T03:57:23.695Z,2.17
2023-06-04T03:59:51.516Z,2.08
2023-06-04T04:02:19.317Z,1.75
2023-06-04T04:04:47.225Z,2.00
2023-06-04T04:07:14.901Z,2.05
2023-06-04T04:09:43.920Z,1.65
2023-06-04T04:12:11.646Z,1.80
2023-06-04T04:14:39.282Z,2.42
2023-06-04T04:17:07.420Z,2.15
2023-06-04T04:19:35.073Z,2.10
2023-06-04T04:22:02.712Z,1.83
2023-06-04T04:24:30.517Z,2.30
2023-06-04T04:26:59.878Z,1.73
2023-06-04T04:29:28.768Z,2.30
2023-06-04T04:31:57.798Z,2.38
2023-06-04T04:34:27.815Z,2.05
2023-06-04T04:36:55.601Z,2.20
2023-06-04T04:39:25.235Z,1.83
2023-06-04T04:41:52.945Z,1.80
2023-06-04T04:44:22.245Z,2.28
2023-06-04T04:46:50.450Z,1.95
2023-06-04T04:49:18.283Z,2.28
2023-06-04T04:51:45.902Z,2.38
2023-06-04T04:54:13.858Z,1.83
2023-06-04T04:56:42.493Z,1.95
2023-06-04T04:59:10.121Z,1.88
2023-06-04T05:01:40.180Z,2.10
2023-06-04T05:04:09.809Z,2.00
2023-06-04T05:06:37.894Z,1.85
2023-06-04T05:09:05.705Z,2.13
2023-06-04T05:11:33.482Z,1.73
2023-06-04T05:14:01.573Z,1.95
2023-06-04T05:16:30.617Z,2.42
2023-06-04T05:18:59.697Z,2.17
2023-06-04T05:21:29.849Z,2.00
2023-06-04T05:23:57.923Z,2.25
2023-06-04T05:26:26.888Z,1.80
2023-06-04T05:28:55.991Z,2.03
2023-06-04T05:31:27.957Z,2.63
2023-06-04T05:33:55.712Z,2.05
2023-06-04T05:36:24.722Z,2.05
2023-06-04T05:38:58.355Z,1.95
2023-06-04T05:41:27.012Z,2.08
2023-06-04T05:43:54.714Z,1.77
2023-06-04T05:46:22.920Z,2.28
2023-06-04T05:48:52.219Z,2.30
2023-06-04T05:51:20.061Z,2.17
2023-06-04T05:53:49.153Z,2.28
2023-06-04T05:56:17.826Z,2.40
2023-06-04T05:58:45.830Z,1.98
2023-06-04T06:01:13.543Z,1.85
2023-06-04T06:03:41.331Z,2.05
2023-06-04T06:06:11.484Z,1.92
2023-06-04T06:08:39.211Z,1.90
2023-06-04T06:11:10.921Z,1.63
2023-06-04T06:13:39.117Z,1.98
2023-06-04T06:16:06.800Z,2.25
2023-06-04T06:18:34.890Z,2.10
2023-06-04T06:21:02.529Z,2.30
2023-06-04T06:23:32.168Z,1.95
2023-06-04T06:26:02.518Z,1.92
2023-06-04T06:28:31.962Z,1.70
2023-06-04T06:30:59.778Z,2.30
2023-06-04T06:33:27.463Z,1.77
2023-06-04T06:35:55.409Z,1.65
2023-06-04T06:38:23.054Z,1.92
2023-06-04T06:40:50.772Z,1.80
2023-06-04T06:43:18.388Z,1.73
2023-06-04T06:45:47.476Z,1.60
2023-06-04T06:48:15.178Z,1.92
2023-06-04T06:50:42.999Z,2.08
2023-06-04T06:53:10.684Z,1.42
2023-06-04T06:55:38.390Z,2.10
2023-06-04T06:58:06.022Z,2.10
2023-06-04T07:00:33.827Z,1.55
2023-06-04T07:03:03.465Z,1.88
2023-06-04T07:05:31.808Z,2.05
2023-06-04T07:07:59.893Z,1.50
2023-06-04T07:10:28.600Z,1.60
2023-06-04T07:12:56.261Z,1.60
2023-06-04T07:15:23.876Z,1.70
2023-06-04T07:17:51.651Z,2.10
2023-06-04T07:20:20.836Z,1.88
2023-06-04T07:22:48.461Z,1.98
2023-06-04T07:25:20.489Z,1.60
2023-06-04T07:27:51.694Z,1.40
2023-06-04T07:30:19.744Z,2.03
2023-06-04T07:32:48.316Z,1.88
2023-06-04T07:35:16.252Z,1.80
2023-06-04T07:37:48.712Z,1.50
2023-06-04T07:40:16.409Z,1.40
2023-06-04T07:42:44.489Z,1.85
2023-06-04T07:45:12.363Z,1.70
2023-06-04T07:47:40.246Z,1.40
2023-06-04T07:50:09.453Z,1.85
2023-06-04T07:52:37.113Z,1.45
2023-06-04T07:55:07.170Z,1.27
2023-06-04T07:57:34.859Z,1.40
2023-06-04T08:00:02.838Z,1.45
2023-06-04T08:02:30.590Z,1.35
2023-06-04T08:04:58.679Z,1.35
2023-06-04T08:07:26.368Z,1.40
2023-06-04T08:09:56.868Z,1.60
2023-06-04T08:12:25.998Z,1.20
2023-06-04T08:14:57.940Z,1.60
2023-06-04T08:17:26.022Z,1.35
2023-06-04T08:19:53.710Z,1.40
2023-06-04T08:22:21.343Z,1.17
2023-06-04T08:24:49.228Z,1.25
2023-06-04T08:27:18.988Z,1.48
2023-06-04T08:29:48.033Z,1.35
2023-06-04T08:32:15.911Z,1.15
2023-06-04T08:34:43.606Z,1.30
2023-06-04T08:37:11.496Z,1.38
2023-06-04T08:39:39.194Z,1.45
2023-06-04T08:42:09.262Z,1.30
2023-06-04T08:44:36.958Z,1.25
2023-06-04T08:47:07.264Z,1.40
2023-06-04T08:49:36.237Z,1.17
2023-06-04T08:52:04.067Z,1.67
2023-06-04T08:54:32.255Z,1.27
2023-06-04T08:57:00.150Z,1.30
2023-06-04T08:59:27.789Z,1.70
2023-06-04T09:01:56.123Z,1.17
2023-06-04T09:04:25.220Z,1.35
2023-06-04T09:06:53.521Z,1.52
2023-06-04T09:09:22.123Z,1.02
2023-06-04T09:11:52.837Z,1.40
2023-06-04T09:14:20.717Z,1.17
2023-06-04T09:16:48.776Z,1.27
2023-06-04T09:19:16.640Z,1.20
2023-06-04T09:21:52.770Z,1.17
2023-06-04T09:24:22.490Z,1.38
2023-06-04T09:26:50.631Z,1.20
2023-06-04T09:29:18.923Z,1.20
2023-06-04T09:31:48.149Z,1.20
2023-06-04T09:34:16.281Z,1.10
2023-06-04T09:36:44.024Z,1.10
2023-06-04T09:39:19.527Z,1.10
2023-06-04T09:41:58.785Z,1.00
2023-06-04T09:44:26.497Z,1.13
2023-06-04T09:46:57.539Z,1.33
2023-06-04T09:49:26.190Z,1.20
2023-06-04T09:51:53.824Z,1.00
2023-06-04T09:54:22.833Z,1.05
2023-06-04T09:56:50.500Z,0.80
2023-06-04T09:59:19.011Z,1.27
2023-06-04T10:01:49.261Z,0.60
2023-06-04T10:04:18.959Z,1.42
2023-06-04T10:06:47.031Z,1.05
2023-06-04T10:09:15.658Z,1.20
2023-06-04T10:11:57.485Z,1.45
2023-06-04T10:14:27.432Z,1.00
2023-06-04T10:16:56.216Z,1.10
2023-06-04T10:19:24.732Z,1.10
2023-06-04T10:21:55.486Z,1.10
2023-06-04T10:24:24.836Z,1.13
2023-06-04T10:26:55.167Z,1.05
2023-06-04T10:29:23.820Z,0.70
2023-06-04T10:31:55.383Z,1.23
2023-06-04T10:34:27.621Z,1.25
2023-06-04T10:36:55.555Z,1.20
2023-06-04T10:39:29.637Z,1.38
2023-06-04T10:42:02.520Z,1.13
2023-06-04T10:44:30.190Z,1.00
2023-06-04T10:46:58.976Z,1.10
2023-06-04T10:49:29.987Z,1.40
2023-06-04T10:51:58.438Z,1.45
2023-06-04T10:54:27.207Z,1.20
2023-06-04T10:56:55.748Z,1.20
2023-06-04T10:59:25.468Z,1.23
2023-06-04T11:01:53.291Z,1.23
2023-06-04T11:04:22.579Z,1.08
2023-06-04T11:06:51.688Z,1.20
2023-06-04T11:09:20.663Z,1.20
2023-06-04T11:11:58.204Z,1.25
2023-06-04T11:14:27.463Z,1.60
2023-06-04T11:16:55.261Z,1.15
2023-06-04T11:19:23.243Z,1.20
2023-06-04T11:21:51.302Z,1.10
2023-06-04T11:24:24.644Z,1.40
2023-06-04T11:27:07.852Z,1.20
2023-06-04T11:29:41.420Z,1.30
2023-06-04T11:32:09.032Z,1.23
2023-06-04T11:34:38.565Z,1.35
2023-06-04T11:37:14.451Z,1.23
2023-06-04T11:39:44.073Z,1.30
2023-06-04T11:42:11.980Z,1.35
2023-06-04T11:44:46.255Z,0.98
2023-06-04T11:47:13.968Z,1.20
2023-06-04T11:49:44.145Z,1.23
2023-06-04T11:52:13.767Z,1.15
2023-06-04T11:54:41.959Z,1.33
2023-06-04T11:57:11.827Z,1.40
2023-06-04T11:59:41.051Z,1.30
2023-06-04T12:02:09.673Z,1.40
2023-06-04T12:04:37.324Z,1.30
2023-06-04T12:07:08.213Z,1.30
2023-06-04T12:09:37.193Z,1.13
2023-06-04T12:12:05.463Z,1.40
2023-06-04T12:14:33.353Z,1.00
2023-06-04T12:17:03.482Z,1.52
2023-06-04T12:19:31.429Z,1.20
2023-06-04T12:22:05.656Z,1.20
2023-06-04T12:24:35.419Z,1.52
2023-06-04T12:27:03.990Z,1.10
2023-06-04T12:29:31.897Z,1.48
2023-06-04T12:32:11.946Z,1.55
2023-06-04T12:34:40.133Z,1.27
2023-06-04T12:37:08.864Z,1.30
2023-06-04T12:39:37.773Z,1.20
2023-06-04T12:42:06.145Z,1.35
2023-06-04T12:44:35.775Z,1.10
2023-06-04T12:47:04.510Z,1.33
2023-06-04T12:49:33.866Z,1.13
2023-06-04T12:52:01.574Z,1.23
2023-06-04T12:54:30.915Z,1.50
2023-06-04T12:56:58.895Z,1.42
2023-06-04T12:59:26.535Z,1.60
2023-06-04T13:01:54.230Z,1.50
2023-06-04T13:04:22.115Z,1.30
2023-06-04T13:06:53.315Z,1.20
2023-06-04T13:09:23.936Z,1.55
2023-06-04T13:11:52.788Z,1.45
2023-06-04T13:14:20.379Z,1.80
2023-06-04T13:16:50.176Z,1.30
2023-06-04T13:19:18.046Z,1.10
2023-06-04T13:21:45.731Z,1.40
2023-06-04T13:24:14.807Z,1.73
2023-06-04T13:26:43.158Z,1.38
2023-06-04T13:29:10.956Z,1.42
2023-06-04T13:31:40.458Z,1.70
2023-06-04T13:34:22.844Z,1.23
2023-06-04T13:36:54.466Z,1.40
2023-06-04T13:39:23.512Z,1.50
2023-06-04T13:41:51.329Z,1.30
2023-06-04T13:44:19.316Z,1.27
2023-06-04T13:46:46.958Z,1.52
2023-06-04T13:49:14.600Z,1.50
2023-06-04T13:51:42.847Z,1.90
2023-06-04T13:54:12.574Z,1.83
2023-06-04T13:56:42.483Z,1.35
2023-06-04T13:59:10.104Z,1.60
2023-06-04T14:01:37.761Z,1.63
2023-06-04T14:04:07.539Z,1.65
2023-06-04T14:06:36.788Z,1.67
2023-06-04T14:09:05.006Z,1.48
2023-06-04T14:11:33.722Z,1.60
2023-06-04T14:14:02.754Z,1.23
2023-06-04T14:16:30.613Z,2.17
2023-06-04T14:18:58.459Z,1.63
2023-06-04T14:21:26.095Z,1.80
2023-06-04T14:23:53.810Z,1.40
2023-06-04T14:26:21.815Z,1.80
2023-06-04T14:28:49.466Z,1.50
2023-06-04T14:31:18.712Z,1.85
2023-06-04T14:33:46.350Z,1.52
2023-06-04T14:36:14.016Z,1.45
2023-06-04T14:38:41.974Z,1.60
2023-06-04T14:41:09.818Z,2.08
2023-06-04T14:43:37.686Z,1.73
2023-06-04T14:46:06.305Z,1.67
2023-06-04T14:48:35.357Z,1.42
2023-06-04T14:51:03.051Z,1.67
2023-06-04T14:53:30.983Z,1.55
2023-06-04T14:55:58.612Z,1.88
2023-06-04T14:58:26.343Z,1.38
2023-06-04T15:00:54.057Z,1.30
2023-06-04T15:03:21.749Z,1.50
2023-06-04T15:05:50.941Z,1.40
2023-06-04T15:08:18.813Z,1.80
2023-06-04T15:10:46.554Z,1.70
2023-06-04T15:13:14.470Z,1.73
2023-06-04T15:15:42.100Z,2.20
2023-06-04T15:18:09.785Z,1.60
2023-06-04T15:20:37.545Z,1.48
2023-06-04T15:23:06.576Z,1.40
2023-06-04T15:25:34.233Z,1.90
2023-06-04T15:28:02.077Z,1.83
2023-06-04T15:30:29.710Z,1.63
2023-06-04T15:33:01.570Z,1.80
2023-06-04T15:35:29.477Z,1.58
2023-06-04T15:37:57.096Z,1.67
2023-06-04T15:40:26.165Z,1.40
2023-06-04T15:42:53.828Z,1.48
2023-06-04T15:45:25.411Z,1.52
2023-06-04T15:47:53.216Z,1.70
2023-06-04T15:50:21.115Z,1.50
2023-06-04T15:52:49.185Z,1.60
2023-06-04T15:55:17.293Z,1.60
2023-06-04T15:57:46.318Z,1.60
2023-06-04T16:00:14.565Z,1.73
2023-06-04T16:02:42.257Z,1.63
2023-06-04T16:05:10.090Z,1.52
2023-06-04T16:07:37.785Z,1.92
2023-06-04T16:10:05.813Z,1.60
2023-06-04T16:12:33.443Z,1.58
2023-06-04T16:15:02.467Z,1.20
2023-06-04T16:17:30.155Z,1.35
2023-06-04T16:19:58.840Z,1.67
2023-06-04T16:22:26.448Z,1.30
2023-06-04T16:24:54.194Z,1.40
2023-06-04T16:27:22.361Z,1.75
2023-06-04T16:29:50.250Z,1.77
2023-06-04T16:32:19.578Z,1.40
2023-06-04T16:34:47.575Z,1.60
2023-06-04T16:37:15.323Z,1.60
2023-06-04T16:39:43.146Z,1.50
2023-06-04T16:42:11.161Z,1.65
2023-06-04T16:44:39.188Z,1.42
2023-06-04T16:47:07.044Z,2.80
2023-06-04T16:49:36.120Z,1.80
2023-06-04T16:52:05.188Z,1.85
2023-06-04T16:54:32.888Z,1.50
2023-06-04T16:57:01.409Z,1.55
2023-06-04T16:59:31.592Z,1.75
2023-06-04T17:02:02.249Z,1.48
2023-06-04T17:04:29.968Z,2.22
2023-06-04T17:06:59.038Z,1.73
2023-06-04T17:09:26.783Z,1.60
2023-06-04T17:11:55.229Z,1.45
2023-06-04T17:14:22.888Z,1.77
2023-06-04T17:16:50.556Z,2.08
2023-06-04T17:19:19.776Z,2.67
2023-06-04T17:21:47.530Z,1.80
2023-06-04T17:24:16.802Z,1.65
2023-06-04T17:26:44.652Z,1.83
2023-06-04T17:29:12.388Z,1.58
2023-06-04T17:31:41.130Z,1.80
2023-06-04T17:34:08.769Z,2.00
2023-06-04T17:36:44.725Z,1.48
2023-06-04T17:39:12.386Z,1.77
2023-06-04T17:41:43.700Z,1.92
2023-06-04T17:44:11.380Z,2.10
2023-06-04T17:46:46.019Z,2.08
2023-06-04T17:49:15.052Z,1.80
2023-06-04T17:51:42.862Z,1.67
2023-06-04T17:54:10.979Z,1.90
2023-06-04T17:56:38.740Z,1.67
2023-06-04T17:59:08.071Z,2.00
2023-06-04T18:01:35.791Z,2.10
2023-06-04T18:04:03.701Z,2.00
2023-06-04T18:06:31.357Z,1.70
2023-06-04T18:08:59.059Z,1.67
2023-06-04T18:11:26.816Z,2.10
2023-06-04T18:13:54.507Z,1.88
2023-06-04T18:16:23.644Z,1.70
2023-06-04T18:18:51.361Z,2.08
2023-06-04T18:21:19.006Z,1.70
2023-06-04T18:23:50.865Z,2.08
2023-06-04T18:26:18.819Z,1.80
2023-06-04T18:28:46.485Z,1.35
2023-06-04T18:31:14.347Z,1.85
2023-06-04T18:33:52.545Z,1.85
2023-06-04T18:36:20.302Z,1.70
2023-06-04T18:38:48.128Z,2.10
2023-06-04T18:41:16.219Z,1.67
2023-06-04T18:43:43.896Z,1.45
2023-06-04T18:46:11.819Z,2.67
2023-06-04T18:48:39.703Z,2.53
2023-06-04T18:51:09.355Z,1.48
2023-06-04T18:53:37.023Z,1.80
2023-06-04T18:56:04.895Z,1.75
2023-06-04T18:58:32.624Z,2.03
2023-06-04T19:01:00.381Z,1.73
2023-06-04T19:03:28.238Z,1.55
2023-06-04T19:05:55.930Z,1.80
2023-06-04T19:08:25.163Z,1.70
2023-06-04T19:10:53.480Z,1.98
2023-06-04T19:13:21.644Z,2.28
2023-06-04T19:15:51.859Z,1.80
2023-06-04T19:18:19.635Z,1.88
2023-06-04T19:20:47.315Z,1.63
2023-06-04T19:23:15.031Z,1.90
2023-06-04T19:25:44.302Z,1.80
2023-06-04T19:28:16.454Z,1.73
2023-06-04T19:31:00.628Z,1.80
2023-06-04T19:33:33.290Z,1.83
2023-06-04T19:36:01.114Z,1.75
2023-06-04T19:38:28.961Z,2.80
2023-06-04T19:40:57.978Z,2.17
2023-06-04T19:43:25.665Z,1.70
2023-06-04T19:45:57.771Z,1.80
2023-06-04T19:48:25.511Z,1.80
2023-06-04T19:50:53.326Z,2.40
2023-06-04T19:53:21.135Z,2.00
2023-06-04T19:55:48.921Z,1.90
2023-06-04T19:58:17.991Z,2.45
2023-06-04T20:00:46.885Z,1.83
2023-06-04T20:03:14.916Z,2.10
2023-06-04T20:05:42.578Z,2.28
2023-06-04T20:08:10.351Z,2.38
2023-06-04T20:10:38.249Z,2.47
2023-06-04T20:13:06.009Z,2.35
2023-06-04T20:15:35.015Z,2.13
2023-06-04T20:18:02.940Z,2.78
2023-06-04T20:20:30.605Z,2.28
2023-06-04T20:22:58.588Z,2.67
2023-06-04T20:25:26.398Z,1.83
2023-06-04T20:27:54.048Z,2.55
2023-06-04T20:30:22.776Z,2.45
2023-06-04T20:32:54.575Z,2.45
2023-06-04T20:35:22.466Z,2.22
2023-06-04T20:37:50.228Z,2.03
2023-06-04T20:40:18.167Z,2.75
2023-06-04T20:42:45.833Z,2.35
2023-06-04T20:45:14.036Z,2.60
2023-06-04T20:47:41.739Z,2.40
2023-06-04T20:50:11.328Z,3.33
2023-06-04T20:52:40.068Z,2.97
2023-06-04T20:55:08.426Z,3.78
2023-06-04T20:57:36.293Z,3.05
2023-06-04T21:00:03.976Z,2.60
2023-06-04T21:02:31.861Z,1.85
2023-06-04T21:04:59.589Z,2.90
2023-06-04T21:07:28.561Z,2.45
2023-06-04T21:09:56.376Z,2.25
2023-06-04T21:12:24.131Z,2.70
2023-06-04T21:14:51.756Z,2.47
2023-06-04T21:17:19.422Z,2.45
2023-06-04T21:19:47.465Z,2.80
2023-06-04T21:22:15.185Z,2.95
2023-06-04T21:24:45.715Z,3.20
2023-06-04T21:27:13.513Z,2.58
2023-06-04T21:29:41.696Z,3.08
2023-06-04T21:32:09.673Z,2.95
2023-06-04T21:34:38.701Z,2.78
2023-06-04T21:37:16.038Z,2.80
2023-06-04T21:39:45.033Z,2.55
2023-06-04T21:42:13.088Z,2.72
2023-06-04T21:44:40.725Z,3.42
2023-06-04T21:47:08.862Z,2.55
2023-06-04T21:49:36.477Z,3.13
2023-06-04T21:52:10.540Z,3.53
2023-06-04T21:54:41.310Z,3.55
2023-06-04T21:57:10.406Z,3.13
2023-06-04T21:59:38.080Z,2.75
2023-06-04T22:02:05.870Z,3.30
2023-06-04T22:04:33.657Z,2.97
2023-06-04T22:07:04.186Z,2.30
2023-06-04T22:09:32.067Z,2.90
2023-06-04T22:11:59.742Z,3.72
2023-06-04T22:14:28.823Z,2.30
2023-06-04T22:16:56.706Z,2.20
2023-06-04T22:19:24.493Z,2.92
2023-06-04T22:21:53.013Z,2.53
2023-06-04T22:24:21.021Z,2.20
2023-06-04T22:26:48.643Z,2.80
2023-06-04T22:29:17.806Z,2.38
2023-06-04T22:31:47.021Z,2.30
2023-06-04T22:34:14.896Z,2.50
2023-06-04T22:36:44.757Z,2.15
2023-06-04T22:39:12.980Z,3.08
2023-06-04T22:41:40.652Z,2.75
2023-06-04T22:44:08.263Z,2.38
2023-06-04T22:46:36.013Z,2.58
2023-06-04T22:49:05.062Z,2.95
2023-06-04T22:51:32.832Z,2.70
2023-06-04T22:54:00.759Z,3.15
2023-06-04T22:56:28.546Z,2.15
2023-06-04T22:58:56.320Z,2.33
2023-06-04T23:01:24.116Z,2.53
2023-06-04T23:03:51.836Z,2.53
2023-06-04T23:06:20.845Z,2.10
2023-06-04T23:08:48.470Z,2.72
2023-06-04T23:11:16.321Z,2.42
2023-06-04T23:13:44.369Z,2.63
2023-06-04T23:16:12.072Z,2.97
2023-06-04T23:18:39.722Z,2.78
2023-06-04T23:21:07.701Z,3.03
2023-06-04T23:23:36.966Z,2.88
2023-06-04T23:26:04.711Z,2.90
2023-06-04T23:28:32.576Z,2.90
2023-06-04T23:31:00.286Z,2.92
2023-06-04T23:33:27.928Z,2.75
2023-06-04T23:35:55.819Z,3.45
2023-06-04T23:38:23.579Z,3.13
2023-06-04T23:40:52.577Z,2.60
2023-06-04T23:43:20.211Z,2.88
2023-06-04T23:45:47.976Z,3.30
2023-06-04T23:48:16.919Z,3.65
2023-06-04T23:50:44.540Z,3.55
2023-06-04T23:53:12.295Z,3.17
2023-06-04T23:55:39.918Z,2.72
2023-06-04T23:58:08.935Z,3.20
